Time;durP1;ratioP1;P1;durP2;ratioP2;P2;SDS_P1;SDS_P2;PMS_P1;PMS_P2;Temp;Humidity;BMP_temperature;BMP_pressure;BME280_temperature;BME280_humidity;BME280_pressure;Samples;Min_cycle;Max_cycle;Signal;HPM_P1;HPM_P2
2022/09/27 00:01:14;;;;;;;1.53;1.43;;;12.50;99.90;;;-141.84;68.03;19537.44;5053299;28;20438;-66
2022/09/27 00:03:42;;;;;;;1.87;1.43;;;12.50;99.90;;;-141.84;68.33;19523.22;5053532;28;20229;-67
2022/09/27 00:06:15;;;;;;;1.33;1.23;;;12.50;99.90;;;-141.84;68.38;19504.94;5053406;28;20720;-66
2022/09/27 00:08:45;;;;;;;1.47;1.30;;;12.40;99.90;;;-141.84;67.53;19561.84;5053495;28;20553;-66
2022/09/27 00:11:25;;;;;;;1.73;1.30;;;12.50;99.90;;;-141.84;67.17;19574.03;5053601;28;20220;-66
2022/09/27 00:13:54;;;;;;;1.23;1.10;;;12.50;99.90;;;-141.84;66.27;19563.88;5053085;28;20229;-67
2022/09/27 00:16:24;;;;;;;2.07;1.37;;;12.60;99.90;;;-141.84;67.44;19549.63;5053328;28;20229;-66
2022/09/27 00:18:52;;;;;;;1.90;1.50;;;12.50;99.90;;;-141.84;67.10;19641.09;5053187;28;20229;-66
2022/09/27 00:21:20;;;;;;;1.67;1.40;;;12.50;99.90;;;-141.84;67.01;19565.91;5053369;28;20259;-67
2022/09/27 00:23:49;;;;;;;1.53;1.20;;;12.60;99.90;;;-141.84;68.11;19533.38;5053026;28;20205;-67
2022/09/27 00:26:18;;;;;;;1.40;1.30;;;12.50;99.90;;;-141.84;68.71;19480.53;5053477;28;20208;-67
2022/09/27 00:28:46;;;;;;;3.72;1.58;;;12.50;99.90;;;-141.84;68.02;19535.41;5052749;28;20540;-67
2022/09/27 00:31:20;;;;;;;2.20;1.60;;;12.50;99.90;;;-141.84;68.92;19482.56;5052946;28;20241;-66
2022/09/27 00:33:50;;;;;;;1.67;1.50;;;12.50;99.90;;;-141.84;68.73;19470.38;5053074;28;20228;-66
2022/09/27 00:36:20;;;;;;;1.43;1.33;;;12.50;99.90;;;-141.84;68.26;19478.50;5052661;28;20233;-66
2022/09/27 00:38:49;;;;;;;2.53;1.40;;;12.40;99.90;;;-141.84;69.56;19427.72;5052859;28;20201;-67
2022/09/27 00:41:22;;;;;;;2.70;1.60;;;12.40;99.90;;;-141.84;69.68;19452.09;5053455;28;20209;-67
2022/09/27 00:43:54;;;;;;;1.50;1.40;;;12.30;99.90;;;-141.84;70.03;19397.22;5052383;28;20241;-66
2022/09/27 00:46:31;;;;;;;2.00;1.33;;;12.20;99.90;;;-141.84;71.16;19383.00;5052848;28;20294;-66
2022/09/27 00:49:11;;;;;;;2.47;1.77;;;12.20;99.90;;;-141.84;70.42;19350.50;5052760;28;20323;-66
2022/09/27 00:51:43;;;;;;;2.27;1.53;;;12.10;99.90;;;-141.84;71.36;19356.59;5052519;28;20680;-66
2022/09/27 00:54:16;;;;;;;1.77;1.57;;;12.10;99.90;;;-141.84;70.88;19354.56;5052667;28;20225;-67
2022/09/27 00:56:47;;;;;;;4.20;1.60;;;12.10;99.90;;;-141.84;70.25;19374.88;5052813;28;20217;-66
2022/09/27 00:59:20;;;;;;;1.53;1.33;;;12.20;99.90;;;-141.84;70.04;19374.88;5052530;28;20646;-65
2022/09/27 01:01:50;;;;;;;2.30;1.60;;;12.10;99.90;;;-141.84;69.45;19395.19;5052442;28;20236;-65
2022/09/27 01:04:24;;;;;;;5.50;1.70;;;12.20;99.90;;;-141.84;69.92;19389.09;5052386;28;20221;-66
2022/09/27 01:06:52;;;;;;;2.70;1.67;;;12.30;99.90;;;-141.84;70.70;19350.50;5052166;28;20749;-66
2022/09/27 01:09:24;;;;;;;1.73;1.60;;;12.30;99.90;;;-141.84;71.15;19342.34;5052096;28;20229;-65
2022/09/27 01:12:05;;;;;;;3.37;1.63;;;12.20;99.90;;;-141.84;71.55;19305.78;5052513;28;20197;-65
2022/09/27 01:14:55;;;;;;;2.00;1.60;;;12.10;99.90;;;-141.84;72.46;19265.13;5052561;28;20190;-66
2022/09/27 01:17:43;;;;;;;1.77;1.43;;;12.10;99.90;;;-141.84;71.41;19279.38;5052545;28;20294;-67
2022/09/27 01:20:54;;;;;;;2.17;1.70;;;12.10;99.90;;;-141.84;72.50;19269.22;5052317;28;20209;-66
2022/09/27 01:23:51;;;;;;;1.60;1.50;;;12.00;99.90;;;-141.84;70.97;19320.00;5017741;28;20226;-66
2022/09/27 01:26:52;;;;;;;1.93;1.73;;;12.10;99.90;;;-141.84;70.56;19309.84;5032466;28;20654;-65
2022/09/27 01:29:39;;;;;;;1.77;1.53;;;12.10;99.90;;;-141.84;71.24;19332.19;5050159;28;20221;-66
2022/09/27 01:32:18;;;;;;;2.43;1.50;;;12.10;99.90;;;-141.84;70.59;19315.94;5032603;28;20217;-67
2022/09/27 01:34:58;;;;;;;1.50;1.40;;;12.20;99.90;;;-141.84;70.98;19299.69;5031831;28;20237;-66
2022/09/27 01:37:38;;;;;;;1.50;1.40;;;12.20;99.90;;;-141.84;70.62;19307.81;5031854;28;20256;-67
2022/09/27 01:40:19;;;;;;;2.80;1.50;;;12.10;99.90;;;-141.84;71.13;19267.16;5031371;28;20787;-67
2022/09/27 01:42:56;;;;;;;1.50;1.40;;;12.10;99.90;;;-141.84;71.69;19291.56;5032023;28;20280;-66
2022/09/27 01:45:34;;;;;;;2.43;1.40;;;12.10;99.90;;;-141.84;71.20;19275.31;5031588;28;20232;-66
2022/09/27 01:48:13;;;;;;;1.53;1.43;;;12.10;99.90;;;-141.84;71.15;19254.97;5031279;28;20233;-65
2022/09/27 01:50:47;;;;;;;1.87;1.60;;;12.10;99.90;;;-141.84;71.41;19273.28;5031766;28;20190;-65
2022/09/27 01:53:21;;;;;;;1.87;1.30;;;12.10;99.90;;;-141.84;71.07;19259.03;5049280;28;20196;-67
2022/09/27 01:55:54;;;;;;;1.60;1.50;;;12.10;99.90;;;-141.84;70.38;19281.41;5051426;28;20708;-66
2022/09/27 01:58:31;;;;;;;1.90;1.23;;;12.10;99.90;;;-141.84;70.72;19281.41;5052067;28;20229;-66
2022/09/27 02:01:01;;;;;;;1.93;1.60;;;12.10;99.90;;;-141.84;70.01;19275.31;5051207;28;20224;-66
2022/09/27 02:03:36;;;;;;;1.53;1.30;;;12.20;99.90;;;-141.84;68.84;19338.28;5051423;28;20221;-66
2022/09/27 02:06:13;;;;;;;1.10;1.00;;;12.20;99.90;;;-141.84;68.77;19332.19;5051503;28;20615;-65
2022/09/27 02:08:47;;;;;;;3.00;1.40;;;12.30;99.90;;;-141.84;69.63;19326.09;5051486;28;20196;-65
2022/09/27 02:11:15;;;;;;;1.40;1.30;;;12.30;99.90;;;-141.84;69.85;19309.84;5051526;28;20216;-65
2022/09/27 02:13:53;;;;;;;1.37;1.10;;;12.30;99.90;;;-141.84;70.51;19293.59;5050981;28;20328;-65
2022/09/27 02:16:30;;;;;;;2.27;1.27;;;12.20;99.90;;;-141.84;71.07;19271.25;5051298;28;20224;-67
2022/09/27 02:19:12;;;;;;;1.70;1.47;;;12.20;99.90;;;-141.84;69.42;19285.47;5051076;28;20762;-67
2022/09/27 02:21:54;;;;;;;1.83;1.40;;;12.20;99.90;;;-141.84;69.86;19283.44;5051246;28;20225;-66
2022/09/27 02:24:42;;;;;;;1.77;1.30;;;12.20;99.90;;;-141.84;69.62;19299.69;5051028;28;20239;-66
2022/09/27 02:27:18;;;;;;;1.40;1.30;;;12.20;99.90;;;-141.84;70.39;19277.34;5051316;28;20228;-67
2022/09/27 02:29:54;;;;;;;1.43;1.27;;;12.20;99.90;;;-141.84;69.85;19317.97;5050919;28;20185;-66
2022/09/27 02:32:22;;;;;;;1.73;1.23;;;12.20;99.90;;;-141.84;69.23;19338.28;5051849;28;20197;-67
2022/09/27 02:34:54;;;;;;;1.37;1.10;;;12.20;99.90;;;-141.84;69.68;19336.25;5050916;28;20233;-68
2022/09/27 02:37:23;;;;;;;1.33;1.17;;;12.30;99.90;;;-141.84;69.34;19358.63;5050949;28;20232;-67
2022/09/27 02:39:51;;;;;;;1.63;1.20;;;12.30;99.90;;;-141.84;69.42;19305.78;5050732;28;20259;-66
2022/09/27 02:42:19;;;;;;;1.47;1.20;;;12.30;99.90;;;-141.84;69.34;19301.72;5050856;28;20708;-65
2022/09/27 02:44:47;;;;;;;1.20;1.10;;;12.30;99.90;;;-141.84;69.81;19313.91;5050591;28;20209;-67
2022/09/27 02:47:43;;;;;;;2.07;1.30;;;12.30;99.90;;;-141.84;68.87;19315.94;5051475;28;20205;-67
2022/09/27 02:50:44;;;;;;;2.33;1.10;;;12.30;99.90;;;-141.84;69.71;19301.72;5051168;28;20213;-65
2022/09/27 02:53:32;;;;;;;1.53;1.20;;;12.30;99.90;;;-141.84;69.87;19283.44;5045117;28;20233;-67
2022/09/27 02:56:13;;;;;;;1.67;1.50;;;12.20;99.90;;;-141.84;69.64;19285.47;5050689;28;20236;-66
2022/09/27 02:58:58;;;;;;;2.37;1.60;;;12.20;99.90;;;-141.84;70.33;19244.81;5050812;28;20306;-67
2022/09/27 03:01:40;;;;;;;2.57;1.20;;;12.20;99.90;;;-141.84;69.91;19250.91;5053312;28;20224;-66
2022/09/27 03:04:17;;;;;;;1.20;1.10;;;12.20;99.90;;;-141.84;69.80;19265.13;5042563;28;20229;-67
2022/09/27 03:06:50;;;;;;;1.07;0.97;;;12.20;99.90;;;-141.84;70.73;19244.81;5034661;28;20234;-66
2022/09/27 03:09:24;;;;;;;1.63;1.40;;;12.10;99.90;;;-141.84;70.98;19212.31;5034578;28;20241;-65
2022/09/27 03:11:52;;;;;;;1.40;1.30;;;12.10;99.90;;;-141.84;70.93;19242.78;5034721;28;20197;-66
2022/09/27 03:14:20;;;;;;;2.33;1.40;;;12.10;99.90;;;-141.84;71.70;19232.63;5034693;28;20688;-65
2022/09/27 03:16:48;;;;;;;1.33;1.20;;;12.10;99.90;;;-141.84;71.68;19271.25;5034409;28;20229;-66
2022/09/27 03:19:16;;;;;;;1.30;1.20;;;12.00;99.90;;;-141.84;71.68;19187.91;5034444;28;20616;-65
2022/09/27 03:21:46;;;;;;;1.70;1.20;;;12.00;99.90;;;-141.84;72.42;19196.06;5034212;28;20226;-65
2022/09/27 03:24:14;;;;;;;1.43;1.30;;;11.90;99.90;;;-141.84;72.50;19147.28;5034068;28;20638;-66
2022/09/27 03:26:42;;;;;;;1.60;1.20;;;11.90;99.90;;;-141.84;73.25;19202.16;5034351;28;20202;-66
2022/09/27 03:29:10;;;;;;;1.80;1.50;;;11.90;99.90;;;-141.84;73.43;19179.78;5034820;28;20205;-66
2022/09/27 03:31:38;;;;;;;2.47;1.43;;;11.90;99.90;;;-141.84;73.11;19143.22;5033967;28;20222;-66
2022/09/27 03:34:06;;;;;;;1.43;1.10;;;11.90;99.90;;;-141.84;73.45;19175.72;5034441;28;20272;-66
2022/09/27 03:36:34;;;;;;;1.57;1.20;;;11.90;99.90;;;-141.84;74.36;19147.28;5034143;28;20229;-67
2022/09/27 03:39:04;;;;;;;1.30;1.10;;;11.80;99.90;;;-141.84;74.89;19122.91;5033877;28;20286;-66
2022/09/27 03:41:32;;;;;;;2.33;1.23;;;11.80;99.90;;;-141.84;75.63;19094.44;5034202;28;20210;-65
2022/09/27 03:44:01;;;;;;;1.43;1.23;;;11.70;99.90;;;-141.84;76.57;19078.19;5033686;28;20226;-66
2022/09/27 03:46:29;;;;;;;2.03;1.17;;;11.60;99.90;;;-141.84;77.32;19057.88;5033785;28;20256;-65
2022/09/27 03:48:57;;;;;;;1.30;1.20;;;11.60;99.90;;;-141.84;77.32;19068.03;5034025;28;20222;-66
2022/09/27 03:51:26;;;;;;;1.67;1.00;;;11.40;99.90;;;-141.84;78.28;19031.47;5033829;28;20229;-67
2022/09/27 03:53:54;;;;;;;1.20;1.10;;;11.50;99.90;;;-141.84;79.15;19021.31;5033861;28;20217;-66
2022/09/27 03:56:23;;;;;;;1.40;1.30;;;11.40;99.90;;;-141.84;79.49;19017.25;5034095;28;20206;-66
2022/09/27 03:58:51;;;;;;;2.27;1.47;;;11.30;99.90;;;-141.84;79.58;18976.59;5033523;28;20221;-66
2022/09/27 04:01:20;;;;;;;1.47;1.20;;;11.30;99.90;;;-141.84;80.20;18998.94;5033449;28;20245;-66
2022/09/27 04:03:48;;;;;;;1.20;1.10;;;11.20;99.90;;;-141.84;80.90;18970.50;5033699;28;20253;-66
2022/09/27 04:06:17;;;;;;;1.43;1.20;;;11.20;99.90;;;-141.84;81.76;18919.69;5032725;28;20237;-67
2022/09/27 04:08:46;;;;;;;1.73;1.20;;;11.10;99.90;;;-141.84;82.42;18903.44;5033218;28;20252;-66
2022/09/27 04:11:14;;;;;;;1.63;1.10;;;11.10;99.90;;;-141.84;82.35;18917.66;5033079;28;20214;-67
2022/09/27 04:13:44;;;;;;;1.30;1.20;;;11.10;99.90;;;-141.84;82.17;18901.41;5033227;28;20249;-66
2022/09/27 04:16:12;;;;;;;1.67;1.20;;;11.00;99.90;;;-141.84;82.53;18883.13;5033108;28;20230;-65
2022/09/27 04:18:40;;;;;;;2.13;1.50;;;11.00;99.90;;;-141.84;83.02;18885.16;5033494;28;20257;-67
2022/09/27 04:21:09;;;;;;;1.40;1.30;;;11.00;99.90;;;-141.84;83.09;18858.75;5033157;28;20237;-67
2022/09/27 04:23:37;;;;;;;2.10;1.50;;;11.00;99.90;;;-141.84;83.53;18838.44;5013882;28;20198;-67
2022/09/27 04:26:06;;;;;;;1.60;1.30;;;11.00;99.90;;;-141.84;83.35;18805.91;5013447;28;20312;-67
2022/09/27 04:28:34;;;;;;;1.37;1.27;;;10.90;99.90;;;-141.84;83.84;18832.34;5013112;28;20608;-67
2022/09/27 04:31:03;;;;;;;1.90;1.50;;;10.90;99.90;;;-141.84;82.61;18838.44;5024173;28;20230;-66
2022/09/27 04:33:32;;;;;;;2.80;1.67;;;11.00;99.90;;;-141.84;83.45;18816.06;5033285;28;20299;-67
2022/09/27 04:38:46;;;;;;;1.67;1.40;;;10.90;99.90;;;-141.84;83.55;18783.56;5032693;28;20677;-66
2022/09/27 04:41:15;;;;;;;4.47;1.23;;;10.90;99.90;;;-141.84;83.82;18761.22;5033024;28;20591;-67
2022/09/27 04:43:43;;;;;;;1.80;1.53;;;10.90;99.90;;;-141.84;83.77;18777.47;5032755;28;20226;-68
2022/09/27 04:46:12;;;;;;;1.50;1.40;;;10.90;99.90;;;-141.84;84.02;18759.19;5032763;28;20226;-66
2022/09/27 04:48:40;;;;;;;2.13;1.50;;;10.90;99.90;;;-141.84;84.82;18744.97;5032751;28;20266;-67
2022/09/27 04:51:10;;;;;;;1.43;1.30;;;10.90;99.90;;;-141.84;85.47;18692.13;5032401;28;20787;-65
2022/09/27 04:53:39;;;;;;;2.30;1.47;;;10.80;99.90;;;-141.84;85.09;18716.53;5013178;28;20202;-66
2022/09/27 04:56:07;;;;;;;1.60;1.40;;;10.80;99.90;;;-141.84;84.78;18704.31;5013183;28;20294;-67
2022/09/27 04:58:35;;;;;;;1.60;1.50;;;10.90;99.90;;;-141.84;84.43;18686.03;5028233;28;20725;-66
2022/09/27 05:01:04;;;;;;;1.70;1.60;;;10.90;99.90;;;-141.84;85.07;18688.06;5043686;28;20233;-67
2022/09/27 05:03:34;;;;;;;1.53;1.40;;;10.80;99.90;;;-141.84;84.44;18653.53;5052450;28;20225;-67
2022/09/27 05:06:02;;;;;;;1.70;1.60;;;10.80;99.90;;;-141.84;84.96;18633.22;5052187;28;20236;-67
2022/09/27 05:08:30;;;;;;;1.90;1.80;;;10.80;99.90;;;-141.84;84.96;18651.50;5052314;28;20202;-66
2022/09/27 05:10:58;;;;;;;3.53;1.73;;;10.80;99.90;;;-141.84;84.55;18645.41;5052147;28;20225;-66
2022/09/27 05:13:26;;;;;;;1.60;1.50;;;10.80;99.90;;;-141.84;85.00;18633.22;5052384;28;20233;-66
2022/09/27 05:15:54;;;;;;;3.53;1.63;;;10.80;99.90;;;-141.84;85.56;18576.31;5052190;28;20225;-67
2022/09/27 05:18:22;;;;;;;1.97;1.67;;;10.80;99.90;;;-141.84;85.97;18572.25;5051944;28;20237;-67
2022/09/27 05:20:55;;;;;;;1.73;1.50;;;10.80;99.90;;;-141.84;85.63;18621.03;5052231;28;20296;-67
2022/09/27 05:23:23;;;;;;;1.60;1.50;;;10.80;99.90;;;-141.84;85.20;18578.38;5051412;28;20197;-67
2022/09/27 05:25:54;;;;;;;1.40;1.30;;;10.80;99.90;;;-141.84;85.27;18574.28;5051904;28;20720;-67
2022/09/27 05:28:23;;;;;;;1.83;1.50;;;10.80;99.90;;;-141.84;85.55;18572.25;5051766;28;20717;-66
2022/09/27 05:30:51;;;;;;;2.23;1.50;;;10.80;99.90;;;-141.84;85.39;18537.72;5051694;28;20279;-66
2022/09/27 05:33:19;;;;;;;1.60;1.50;;;10.90;99.90;;;-141.84;85.18;18547.88;5051972;28;20271;-66
2022/09/27 05:35:54;;;;;;;3.50;1.60;;;10.90;99.90;;;-141.84;85.40;18562.09;5051570;28;20198;-66
2022/09/27 05:38:22;;;;;;;1.80;1.57;;;10.90;99.90;;;-141.84;85.86;18515.38;5052116;28;20205;-67
2022/09/27 05:40:50;;;;;;;2.77;1.70;;;10.90;99.90;;;-141.84;84.89;18549.91;5051638;28;20283;-68
2022/09/27 05:43:20;;;;;;;2.17;1.50;;;11.00;99.90;;;-141.84;85.22;18521.47;5051721;28;20275;-67
2022/09/27 05:45:49;;;;;;;2.63;1.50;;;11.00;99.90;;;-141.84;83.88;18529.59;5051157;28;20237;-66
2022/09/27 05:48:17;;;;;;;1.53;1.43;;;11.10;99.90;;;-141.84;84.09;18533.66;5051643;28;20225;-66
2022/09/27 05:50:45;;;;;;;1.87;1.43;;;11.10;99.90;;;-141.84;84.47;18509.28;5051759;28;20201;-66
2022/09/27 05:53:15;;;;;;;1.70;1.40;;;11.20;99.90;;;-141.84;83.53;18570.22;5052089;28;20255;-67
2022/09/27 05:55:43;;;;;;;2.83;1.90;;;11.20;99.90;;;-141.84;83.36;18535.69;5051439;28;20225;-66
2022/09/27 05:58:12;;;;;;;2.67;2.47;;;11.20;99.90;;;-141.84;83.54;18549.91;5051301;28;20229;-67
2022/09/27 06:00:40;;;;;;;1.70;1.60;;;11.30;99.90;;;-141.84;81.93;18553.97;5051389;28;20260;-67
2022/09/27 06:03:12;;;;;;;1.47;1.37;;;11.40;99.90;;;-141.84;82.39;18535.69;5051339;28;20248;-66
2022/09/27 06:05:41;;;;;;;2.40;1.30;;;11.40;99.90;;;-141.84;83.69;18572.25;5051321;28;20190;-66
2022/09/27 06:08:13;;;;;;;1.37;1.27;;;11.40;99.90;;;-141.84;84.31;18511.31;5051595;28;20205;-65
2022/09/27 06:10:42;;;;;;;4.90;1.40;;;11.40;99.90;;;-141.84;82.83;18558.03;5051101;28;20228;-68
2022/09/27 06:13:14;;;;;;;1.37;1.20;;;11.40;99.90;;;-141.84;83.30;18547.88;5051113;28;20774;-66
2022/09/27 06:15:46;;;;;;;1.50;1.40;;;11.40;99.90;;;-141.84;83.83;18558.03;5051405;28;20347;-67
2022/09/27 06:18:16;;;;;;;1.30;1.20;;;11.40;99.90;;;-141.84;84.03;18541.78;5051209;28;20233;-66
2022/09/27 06:20:45;;;;;;;1.97;1.50;;;11.50;99.90;;;-141.84;84.14;18570.22;5051051;28;20186;-67
2022/09/27 06:23:16;;;;;;;2.33;1.30;;;11.50;99.90;;;-141.84;82.21;18549.91;5051497;28;20599;-67
2022/09/27 06:25:46;;;;;;;1.30;1.20;;;11.50;99.90;;;-141.84;81.12;18592.59;5051205;28;20696;-67
2022/09/27 06:28:16;;;;;;;2.40;1.47;;;11.60;99.90;;;-141.84;81.54;18576.31;5050947;28;20732;-66
2022/09/27 06:30:47;;;;;;;1.70;1.43;;;11.50;99.90;;;-141.84;82.25;18537.72;5050883;28;20225;-67
2022/09/27 06:33:18;;;;;;;1.53;1.27;;;11.50;99.90;;;-141.84;82.63;18535.69;5049874;28;20311;-67
2022/09/27 06:35:48;;;;;;;2.83;1.50;;;11.50;99.90;;;-141.84;81.74;18537.72;5054476;28;20194;-68
2022/09/27 06:38:20;;;;;;;2.20;1.40;;;11.50;99.90;;;-141.84;81.28;18584.47;5055356;28;20221;-66
2022/09/27 06:40:50;;;;;;;1.47;1.37;;;11.50;99.90;;;-141.84;81.58;18549.91;5054836;28;20274;-66
2022/09/27 06:43:20;;;;;;;1.80;1.30;;;11.50;99.90;;;-141.84;82.30;18543.81;5054827;28;20657;-66
2022/09/27 06:45:49;;;;;;;1.60;1.33;;;11.40;99.90;;;-141.84;82.71;18564.13;5054855;28;20237;-66
2022/09/27 06:48:17;;;;;;;2.30;1.60;;;11.40;99.90;;;-141.84;83.24;18566.16;5054942;28;20248;-65
2022/09/27 06:50:47;;;;;;;2.67;1.80;;;11.40;99.90;;;-141.84;83.78;18509.28;5053890;28;20665;-66
2022/09/27 06:53:17;;;;;;;2.33;1.70;;;11.40;99.90;;;-141.84;83.89;18539.75;5055121;28;20671;-67
2022/09/27 06:55:45;;;;;;;2.20;1.60;;;11.40;99.90;;;-141.84;83.69;18564.13;5054731;28;20259;-66
2022/09/27 07:01:00;;;;;;;1.53;1.43;;;11.50;99.90;;;-141.84;84.25;18535.69;5054402;28;20244;-66
2022/09/27 07:03:34;;;;;;;2.03;1.70;;;11.50;99.90;;;-141.84;84.35;18521.47;5054518;28;20724;-67
2022/09/27 07:06:16;;;;;;;1.60;1.50;;;11.60;99.90;;;-141.84;82.79;18519.44;5054807;28;20221;-66
2022/09/27 07:08:44;;;;;;;1.57;1.47;;;11.60;99.90;;;-141.84;81.89;18537.72;5054724;28;20186;-66
2022/09/27 07:11:14;;;;;;;3.13;1.70;;;11.70;99.90;;;-141.84;82.33;18574.28;5054584;28;20205;-65
2022/09/27 07:13:43;;;;;;;2.20;1.70;;;11.80;99.90;;;-141.84;82.12;18586.50;5054958;28;20578;-65
2022/09/27 07:16:13;;;;;;;1.70;1.60;;;11.90;99.90;;;-141.84;81.31;18590.56;5054672;28;20225;-65
2022/09/27 07:18:42;;;;;;;2.37;1.43;;;12.00;99.90;;;-141.84;80.16;18606.81;5055102;28;20229;-66
2022/09/27 07:21:11;;;;;;;2.60;1.63;;;12.10;99.90;;;-141.84;79.23;18659.63;5055280;28;20229;-66
2022/09/27 07:23:39;;;;;;;2.20;1.50;;;12.20;99.90;;;-141.84;77.14;18724.66;5035104;28;20206;-66
2022/09/27 07:26:09;;;;;;;2.07;1.40;;;12.20;99.90;;;-141.84;77.39;18716.53;5035685;28;20198;-66
2022/09/27 07:28:40;;;;;;;2.27;1.63;;;12.30;99.90;;;-141.84;77.00;18787.63;5035000;28;20780;-65
2022/09/27 07:31:10;;;;;;;3.53;1.60;;;12.40;99.90;;;-141.84;75.96;18793.72;5034922;28;20637;-66
2022/09/27 07:33:39;;;;;;;1.70;1.47;;;12.60;99.90;;;-141.84;75.61;18789.66;5034673;28;20228;-66
2022/09/27 07:36:12;;;;;;;3.47;1.80;;;12.60;99.90;;;-141.84;74.67;18854.69;5035006;28;20265;-66
2022/09/27 07:38:40;;;;;;;2.47;1.10;;;12.70;99.90;;;-141.84;74.34;18866.88;5035064;28;20221;-65
2022/09/27 07:41:12;;;;;;;2.60;1.30;;;12.70;99.90;;;-141.84;74.11;18887.19;5035506;28;20214;-68
2022/09/27 07:43:41;;;;;;;2.37;1.63;;;12.80;99.90;;;-141.84;73.76;18885.16;5034612;28;20603;-65
2022/09/27 07:46:12;;;;;;;1.33;1.10;;;12.80;99.90;;;-141.84;73.10;18950.19;5033982;28;20229;-65
2022/09/27 07:48:41;;;;;;;2.93;1.30;;;12.90;99.90;;;-141.84;74.11;18879.06;5034916;28;20222;-66
2022/09/27 07:51:10;;;;;;;1.33;1.10;;;12.80;99.90;;;-141.84;74.85;18868.91;5034835;28;20226;-65
2022/09/27 07:53:39;;;;;;;1.97;1.30;;;12.80;99.90;;;-141.84;74.66;18862.81;5055046;28;20197;-64
2022/09/27 07:56:07;;;;;;;2.33;1.30;;;12.80;99.90;;;-141.84;74.94;18895.31;5054789;28;20213;-66
2022/09/27 07:58:35;;;;;;;2.85;1.40;;;12.90;99.90;;;-141.84;73.31;18954.25;5054419;28;20237;-60
2022/09/27 08:01:03;;;;;;;0.82;0.80;;;13.10;99.90;;;-141.84;71.30;19000.97;5054326;28;20224;-60
2022/09/27 08:03:33;;;;;;;1.10;0.90;;;13.10;99.90;;;-141.84;71.67;18972.53;5054572;28;20294;-60
2022/09/27 08:06:04;;;;;;;1.23;0.83;;;13.20;99.90;;;-141.84;71.29;19041.63;5054194;28;20240;-61
2022/09/27 08:08:32;;;;;;;2.83;0.70;;;13.30;99.90;;;-141.84;70.87;19041.63;5054810;28;20243;-61
2022/09/27 08:11:00;;;;;;;1.13;0.90;;;13.30;99.90;;;-141.84;69.21;19155.41;5054112;28;20291;-61
2022/09/27 08:13:28;;;;;;;1.52;1.10;;;13.40;99.90;;;-141.84;68.99;19157.44;5054323;28;20226;-60
2022/09/27 08:16:02;;;;;;;0.98;0.90;;;13.50;99.90;;;-141.84;68.49;19252.94;5053963;28;20225;-60
2022/09/27 08:18:30;;;;;;;0.93;0.70;;;13.60;99.90;;;-141.84;68.15;19210.28;5054182;28;20225;-60
2022/09/27 08:21:00;;;;;;;1.53;0.73;;;13.80;99.90;;;-141.84;67.35;19283.44;5053964;28;20201;-60
2022/09/27 08:23:29;;;;;;;2.00;1.10;;;13.80;99.90;;;-141.84;66.44;19326.09;5054521;28;20206;-60
2022/09/27 08:25:58;;;;;;;1.13;0.90;;;13.80;99.90;;;-141.84;65.72;19435.84;5053774;28;20229;-60
2022/09/27 08:28:27;;;;;;;1.13;0.80;;;14.00;99.90;;;-141.84;66.82;19352.53;5053893;28;20248;-63
2022/09/27 08:30:58;;;;;;;0.95;0.90;;;13.90;99.90;;;-141.84;67.14;19281.41;5053524;28;20232;-61
2022/09/27 08:33:27;;;;;;;0.98;0.90;;;13.70;99.90;;;-141.84;68.19;19250.91;5053940;28;20229;-61
2022/09/27 08:36:02;;;;;;;0.80;0.70;;;13.60;99.90;;;-141.84;69.04;19165.56;5053929;28;20298;-61
2022/09/27 08:38:30;;;;;;;3.23;1.10;;;13.50;99.90;;;-141.84;71.31;19082.25;5054221;28;20201;-61
2022/09/27 08:41:07;;;;;;;1.10;1.00;;;13.20;99.90;;;-141.84;73.12;18996.91;5053331;28;20592;-59
2022/09/27 08:43:48;;;;;;;1.20;1.10;;;12.90;99.90;;;-141.84;75.02;18952.22;5053743;28;20235;-59
2022/09/27 08:46:29;;;;;;;1.80;0.83;;;12.70;99.90;;;-141.84;75.71;18905.47;5053521;28;20705;-60
2022/09/27 08:49:07;;;;;;;3.30;1.00;;;12.70;99.90;;;-141.84;74.45;18968.47;5053538;28;20224;-59
2022/09/27 08:51:37;;;;;;;2.20;1.00;;;12.70;99.90;;;-141.84;74.70;18917.66;5053612;28;20282;-60
2022/09/27 08:54:14;;;;;;;1.20;1.00;;;12.60;99.90;;;-141.84;74.80;18905.47;5053823;28;20233;-61
2022/09/27 08:56:42;;;;;;;0.90;0.70;;;12.60;99.90;;;-141.84;75.53;18875.00;5053815;28;20177;-60
2022/09/27 08:59:19;;;;;;;1.33;0.90;;;12.30;99.90;;;-141.84;76.46;18834.38;5054059;28;20287;-60
2022/09/27 09:01:49;;;;;;;1.20;1.10;;;12.20;99.90;;;-141.84;76.67;18822.19;5053103;28;20232;-61
2022/09/27 09:04:28;;;;;;;1.27;1.17;;;12.10;99.90;;;-141.84;77.17;18787.63;5052960;28;20229;-60
2022/09/27 09:07:14;;;;;;;1.57;1.40;;;11.90;99.90;;;-141.84;76.31;18807.94;5052814;28;20255;-60
2022/09/27 09:09:55;;;;;;;1.93;1.20;;;11.90;99.90;;;-141.84;76.58;18777.47;5052544;28;20221;-59
2022/09/27 09:12:45;;;;;;;1.40;1.30;;;11.90;99.90;;;-141.84;77.21;18777.47;5053243;28;20229;-60
2022/09/27 09:15:32;;;;;;;1.40;1.30;;;11.90;99.90;;;-141.84;76.47;18822.19;5053295;28;20228;-60
2022/09/27 09:18:26;;;;;;;2.03;1.20;;;12.00;99.90;;;-141.84;74.43;18822.19;5053291;28;20233;-61
2022/09/27 09:21:01;;;;;;;1.07;0.93;;;12.10;99.90;;;-141.84;73.31;18848.59;5052667;28;20241;-60
2022/09/27 09:24:04;;;;;;;1.77;0.90;;;12.10;99.90;;;-141.84;72.02;18883.13;5053441;28;20200;-60
2022/09/27 09:26:42;;;;;;;0.87;0.63;;;12.20;99.90;;;-141.84;70.59;19000.97;5053228;28;20216;-60
2022/09/27 09:29:26;;;;;;;0.60;0.60;;;12.50;99.90;;;-141.84;70.46;18990.81;5053070;28;20205;-60
2022/09/27 09:32:07;;;;;;;1.50;0.70;;;12.60;99.90;;;-141.84;68.05;19098.50;5052399;28;20582;-60
2022/09/27 09:34:43;;;;;;;1.17;0.67;;;12.70;99.90;;;-141.84;66.00;19187.91;5052589;28;20233;-60
2022/09/27 09:37:20;;;;;;;0.63;0.50;;;12.80;99.90;;;-141.84;66.60;19175.72;5052378;28;20684;-59
2022/09/27 09:39:56;;;;;;;0.33;0.30;;;12.80;99.90;;;-141.84;66.73;19187.91;5052322;28;20233;-62
2022/09/27 09:42:31;;;;;;;0.90;0.60;;;12.70;99.90;;;-141.84;67.44;19118.84;5052212;28;20229;-61
2022/09/27 09:45:05;;;;;;;1.38;0.50;;;12.70;99.90;;;-141.84;67.80;19135.09;5048664;28;20247;-61
2022/09/27 09:47:40;;;;;;;0.87;0.60;;;12.60;99.90;;;-141.84;69.24;19057.88;5049199;28;20194;-61
2022/09/27 09:50:20;;;;;;;0.60;0.60;;;12.50;99.90;;;-141.84;69.92;19027.41;5052537;28;20241;-61
2022/09/27 09:52:55;;;;;;;1.20;0.70;;;12.40;99.90;;;-141.84;71.76;18960.34;5052206;28;20229;-62
2022/09/27 09:55:31;;;;;;;1.00;0.70;;;12.20;99.90;;;-141.84;72.13;18950.19;5052192;28;20225;-61
2022/09/27 09:58:14;;;;;;;1.27;0.80;;;12.10;99.90;;;-141.84;73.59;18899.38;5052243;28;20285;-61
2022/09/27 10:00:49;;;;;;;2.50;0.93;;;12.00;99.90;;;-141.84;75.17;18879.06;5052036;28;20229;-61
2022/09/27 10:03:18;;;;;;;1.00;0.90;;;11.90;99.90;;;-141.84;73.95;18879.06;5052066;28;20228;-62
2022/09/27 10:05:47;;;;;;;0.80;0.63;;;11.80;99.90;;;-141.84;75.02;18858.75;5052091;28;20206;-61
2022/09/27 10:08:21;;;;;;;0.77;0.70;;;11.90;99.90;;;-141.84;74.71;18903.44;5052640;28;20205;-59
2022/09/27 10:10:50;;;;;;;0.77;0.67;;;11.90;99.90;;;-141.84;72.57;18925.81;5051643;28;20237;-60
2022/09/27 10:13:21;;;;;;;0.97;0.67;;;12.10;99.90;;;-141.84;72.27;19013.16;5051859;28;20225;-60
2022/09/27 10:15:59;;;;;;;1.23;0.70;;;12.40;99.90;;;-141.84;72.15;18986.75;5051698;28;20229;-60
2022/09/27 10:18:28;;;;;;;1.33;0.70;;;12.60;99.90;;;-141.84;71.83;19029.44;5032004;28;20228;-60
2022/09/27 10:21:01;;;;;;;0.50;0.50;;;12.70;99.90;;;-141.84;70.28;19068.03;5032058;28;20226;-61
2022/09/27 10:23:30;;;;;;;0.53;0.53;;;12.80;99.90;;;-141.84;71.41;19029.44;5032515;28;20191;-62
2022/09/27 10:26:03;;;;;;;0.60;0.60;;;12.90;99.90;;;-141.84;71.29;19051.78;5031850;28;20230;-62
2022/09/27 10:28:38;;;;;;;0.87;0.60;;;13.10;99.90;;;-141.84;70.36;19068.03;5031926;28;20238;-61
2022/09/27 10:31:11;;;;;;;0.87;0.67;;;12.90;99.90;;;-141.84;72.00;19017.25;5031729;28;20782;-60
2022/09/27 10:33:54;;;;;;;0.57;0.57;;;12.80;99.90;;;-141.84;72.48;18968.47;5031938;28;20237;-62